Time;durP1;ratioP1;P1;durP2;ratioP2;P2;SDS_P1;SDS_P2;PMS_P1;PMS_P2;Temp;Humidity;BMP_temperature;BMP_pressure;BME280_temperature;BME280_humidity;BME280_pressure;Samples;Min_cycle;Max_cycle;Signal;HPM_P1;HPM_P2
2021/03/05 00:00:45;;;;;;;11.30;5.53;;;1.90;89.70;;;;;;5062020;28;20052;-72
2021/03/05 00:03:11;;;;;;;9.88;5.40;;;1.90;88.50;;;;;;5063643;28;20395;-73
2021/03/05 00:05:39;;;;;;;10.13;5.10;;;1.90;88.40;;;;;;5066872;28;20131;-72
2021/03/05 00:08:06;;;;;;;17.08;6.50;;;2.00;88.70;;;;;;5067523;28;20017;-72
2021/03/05 00:10:34;;;;;;;10.43;5.18;;;1.90;88.20;;;;;;5067785;28;20465;-72
2021/03/05 00:13:01;;;;;;;11.52;5.18;;;1.90;87.90;;;;;;5065665;28;20055;-75
2021/03/05 00:15:33;;;;;;;10.45;4.32;;;1.90;88.10;;;;;;5070622;28;20021;-72
2021/03/05 00:17:59;;;;;;;12.38;4.38;;;1.90;87.80;;;;;;5065820;28;20120;-72
2021/03/05 00:20:27;;;;;;;9.80;5.10;;;1.90;87.70;;;;;;5064609;28;20028;-72
2021/03/05 00:22:53;;;;;;;8.25;3.80;;;1.80;88.00;;;;;;5065066;28;20027;-72
2021/03/05 00:25:19;;;;;;;12.00;4.57;;;1.80;88.10;;;;;;5063670;28;20506;-73
2021/03/05 00:27:45;;;;;;;13.65;4.93;;;1.80;87.90;;;;;;5067241;28;20055;-72
2021/03/05 00:30:12;;;;;;;10.52;4.85;;;1.70;88.00;;;;;;5065072;28;20060;-73
2021/03/05 00:32:38;;;;;;;11.63;4.95;;;1.80;88.60;;;;;;5064902;28;20060;-72
2021/03/05 00:35:11;;;;;;;13.20;5.13;;;1.70;88.60;;;;;;5064344;28;20028;-72
2021/03/05 00:37:38;;;;;;;11.95;5.05;;;1.70;88.50;;;;;;5068105;28;20028;-74
2021/03/05 00:40:08;;;;;;;12.07;4.85;;;1.70;88.40;;;;;;5065466;28;20060;-74
2021/03/05 00:42:34;;;;;;;10.90;5.40;;;1.60;88.80;;;;;;5068597;28;20039;-72
2021/03/05 00:45:00;;;;;;;9.85;5.00;;;1.70;88.40;;;;;;5059236;28;20575;-73
2021/03/05 00:47:26;;;;;;;10.30;3.95;;;1.70;88.30;;;;;;5064947;28;20070;-73
2021/03/05 00:49:52;;;;;;;8.68;4.68;;;1.60;87.50;;;;;;5065152;28;20483;-73
2021/03/05 00:52:18;;;;;;;12.57;4.38;;;1.60;87.50;;;;;;5066876;28;20050;-71
2021/03/05 00:54:43;;;;;;;7.78;3.65;;;1.50;86.90;;;;;;5063531;28;20017;-72
2021/03/05 00:57:10;;;;;;;9.18;3.38;;;1.40;87.50;;;;;;5066560;28;20025;-72
2021/03/05 00:59:36;;;;;;;8.40;3.60;;;1.50;87.70;;;;;;5070522;28;20043;-73
2021/03/05 01:02:02;;;;;;;7.95;3.00;;;1.50;86.90;;;;;;5067989;28;20025;-73
2021/03/05 01:04:27;;;;;;;8.45;2.80;;;1.40;87.10;;;;;;5066214;28;20032;-72
2021/03/05 01:06:53;;;;;;;10.90;3.65;;;1.40;86.70;;;;;;5070421;28;20403;-74
2021/03/05 01:09:19;;;;;;;8.43;4.05;;;1.40;86.70;;;;;;5071889;28;20032;-73
2021/03/05 01:11:45;;;;;;;7.22;2.83;;;1.40;86.60;;;;;;5068459;28;20028;-74
2021/03/05 01:14:11;;;;;;;7.80;2.90;;;1.40;86.90;;;;;;5072030;28;20028;-72
2021/03/05 01:16:36;;;;;;;8.70;3.13;;;1.30;86.70;;;;;;5066520;28;20033;-73
2021/03/05 01:19:06;;;;;;;11.40;3.40;;;1.30;86.80;;;;;;5068495;28;20036;-72
2021/03/05 01:21:32;;;;;;;8.13;3.30;;;1.20;87.00;;;;;;5069015;28;20107;-72
2021/03/05 01:23:58;;;;;;;9.27;3.40;;;1.20;87.20;;;;;;5064274;28;20037;-72
2021/03/05 01:26:23;;;;;;;10.60;3.42;;;1.20;87.30;;;;;;5072401;28;20111;-72
2021/03/05 01:28:49;;;;;;;10.75;4.22;;;1.30;87.10;;;;;;5074307;28;20056;-73
2021/03/05 01:31:15;;;;;;;10.10;3.10;;;1.30;86.90;;;;;;5070389;28;20392;-73
2021/03/05 01:33:42;;;;;;;10.23;3.17;;;1.20;87.00;;;;;;5066881;28;20111;-74
2021/03/05 01:36:09;;;;;;;15.32;4.70;;;1.20;87.30;;;;;;5064189;28;20017;-72
2021/03/05 01:38:35;;;;;;;8.27;3.25;;;1.10;87.80;;;;;;5069319;28;20024;-73
2021/03/05 01:41:01;;;;;;;6.95;3.58;;;1.20;87.60;;;;;;5071607;28;20029;-74
2021/03/05 01:43:30;;;;;;;9.30;3.55;;;1.20;87.10;;;;;;5073126;28;20058;-72
2021/03/05 01:45:56;;;;;;;12.38;4.68;;;1.20;87.10;;;;;;5069058;28;20138;-73
2021/03/05 01:48:22;;;;;;;10.95;4.07;;;1.20;87.80;;;;;;5068584;28;20130;-71
2021/03/05 01:50:59;;;;;;;9.35;4.38;;;1.20;87.80;;;;;;5067118;28;20029;-71
2021/03/05 01:53:26;;;;;;;9.60;4.07;;;1.10;87.60;;;;;;5068797;28;20056;-71
2021/03/05 01:55:52;;;;;;;7.32;3.30;;;1.10;87.90;;;;;;5067761;28;20082;-73
2021/03/05 01:58:18;;;;;;;10.80;3.72;;;1.10;88.10;;;;;;5065498;28;20024;-71
2021/03/05 02:00:48;;;;;;;8.98;3.55;;;1.10;87.70;;;;;;5072280;28;20434;-73
2021/03/05 02:03:14;;;;;;;8.82;3.42;;;1.20;87.70;;;;;;5068442;28;20029;-73
2021/03/05 02:05:40;;;;;;;10.43;3.40;;;1.20;87.20;;;;;;5068354;28;20889;-72
2021/03/05 02:08:07;;;;;;;10.45;3.97;;;1.20;87.30;;;;;;5064327;28;20029;-72
2021/03/05 02:10:33;;;;;;;8.13;3.45;;;1.20;87.40;;;;;;5068257;28;20016;-73
2021/03/05 02:12:59;;;;;;;9.00;3.90;;;1.10;87.50;;;;;;5060681;28;20037;-72
2021/03/05 02:15:25;;;;;;;10.73;3.97;;;1.10;87.70;;;;;;5068079;28;20028;-71
2021/03/05 02:18:10;;;;;;;12.27;4.15;;;1.10;87.60;;;;;;5071395;28;20036;-72
2021/03/05 02:20:48;;;;;;;6.00;3.83;;;1.10;87.90;;;;;;5070444;28;20530;-71
2021/03/05 02:23:51;;;;;;;8.07;4.00;;;1.10;88.10;;;;;;5065674;28;20028;-73
2021/03/05 02:26:30;;;;;;;8.70;4.28;;;1.00;88.10;;;;;;5067489;28;20029;-72
2021/03/05 02:29:08;;;;;;;8.68;4.95;;;1.00;88.60;;;;;;5069376;28;20609;-72
2021/03/05 02:31:44;;;;;;;8.85;4.28;;;1.00;89.60;;;;;;5071347;28;20037;-72
2021/03/05 02:34:27;;;;;;;11.77;4.97;;;1.00;88.70;;;;;;5071983;28;20023;-72
2021/03/05 02:37:00;;;;;;;13.70;4.80;;;1.00;88.80;;;;;;5070016;28;20031;-72
2021/03/05 02:39:31;;;;;;;11.98;4.35;;;1.00;88.70;;;;;;5071821;28;20028;-74
2021/03/05 02:42:02;;;;;;;10.00;4.63;;;1.00;88.80;;;;;;5066611;28;20028;-72
2021/03/05 02:44:32;;;;;;;13.35;4.57;;;1.00;88.70;;;;;;5072097;28;20533;-75
2021/03/05 02:47:02;;;;;;;10.20;4.50;;;1.00;88.60;;;;;;5065923;28;20067;-72
2021/03/05 02:49:32;;;;;;;9.18;3.88;;;0.90;88.80;;;;;;5072378;28;20046;-73
2021/03/05 02:52:04;;;;;;;9.32;4.53;;;0.90;88.70;;;;;;5062250;28;20037;-74
2021/03/05 02:54:31;;;;;;;9.23;4.68;;;0.90;89.00;;;;;;5065044;28;20028;-72
2021/03/05 02:56:58;;;;;;;11.60;4.28;;;0.90;90.00;;;;;;5066025;28;20074;-73
2021/03/05 02:59:25;;;;;;;10.85;4.18;;;0.90;89.30;;;;;;5068335;28;20017;-72
2021/03/05 03:01:52;;;;;;;8.23;3.83;;;0.80;88.60;;;;;;5072017;28;20013;-74
2021/03/05 03:04:20;;;;;;;6.00;3.05;;;0.80;88.90;;;;;;5068326;28;20076;-74
2021/03/05 03:06:47;;;;;;;9.20;3.35;;;0.70;89.10;;;;;;5065868;28;20471;-74
2021/03/05 03:09:14;;;;;;;10.32;4.28;;;0.70;89.00;;;;;;5067639;28;20103;-73
2021/03/05 03:11:42;;;;;;;7.32;3.38;;;0.70;89.10;;;;;;5065492;28;20036;-72
2021/03/05 03:14:08;;;;;;;6.43;3.55;;;0.80;88.60;;;;;;5066695;28;20021;-74
2021/03/05 03:16:36;;;;;;;9.45;3.63;;;0.80;88.20;;;;;;5068559;28;20056;-72
2021/03/05 03:19:02;;;;;;;7.65;3.35;;;0.80;88.60;;;;;;5059665;28;20449;-73
2021/03/05 03:21:28;;;;;;;10.73;3.28;;;0.70;88.50;;;;;;5069741;28;20086;-73
2021/03/05 03:23:54;;;;;;;8.90;3.97;;;0.80;88.30;;;;;;5067802;28;20029;-71
2021/03/05 03:26:22;;;;;;;12.52;3.30;;;0.70;88.40;;;;;;5066884;28;20032;-71
2021/03/05 03:28:48;;;;;;;12.90;4.00;;;0.70;88.80;;;;;;5070216;28;20036;-72
2021/03/05 03:31:15;;;;;;;8.80;3.42;;;0.80;88.50;;;;;;5064621;28;20016;-71
2021/03/05 03:33:41;;;;;;;9.98;4.03;;;0.70;88.60;;;;;;5065067;28;20028;-71
2021/03/05 03:36:07;;;;;;;10.50;4.63;;;0.70;89.00;;;;;;5064234;28;20035;-73
2021/03/05 03:38:33;;;;;;;8.38;4.03;;;0.60;89.10;;;;;;5069979;28;20027;-71
2021/03/05 03:41:00;;;;;;;8.70;4.85;;;0.60;88.80;;;;;;5070263;28;20084;-73
2021/03/05 03:43:26;;;;;;;11.38;4.95;;;0.60;89.20;;;;;;5063199;28;20070;-74
2021/03/05 03:45:53;;;;;;;11.45;4.32;;;0.60;89.30;;;;;;5070373;28;20044;-71
2021/03/05 03:48:20;;;;;;;13.88;3.88;;;0.60;89.50;;;;;;5060906;28;20059;-74
2021/03/05 03:50:58;;;;;;;10.05;3.85;;;0.50;89.40;;;;;;5071075;28;20029;-72
2021/03/05 03:53:28;;;;;;;8.43;3.40;;;0.40;89.70;;;;;;5059915;28;20032;-74
2021/03/05 03:55:56;;;;;;;8.95;3.92;;;0.50;89.60;;;;;;5065730;28;20541;-74
2021/03/05 03:58:24;;;;;;;8.73;4.57;;;0.40;89.70;;;;;;5068247;28;20040;-72
2021/03/05 04:00:54;;;;;;;8.90;4.28;;;0.40;89.70;;;;;;5064537;28;20032;-72
2021/03/05 04:03:25;;;;;;;10.75;4.40;;;0.40;89.80;;;;;;5069912;28;20035;-74
2021/03/05 04:05:53;;;;;;;7.90;3.20;;;0.40;90.00;;;;;;5064759;28;20121;-73
2021/03/05 04:08:20;;;;;;;8.38;3.65;;;0.40;89.60;;;;;;5061916;28;20029;-74
2021/03/05 04:10:47;;;;;;;7.45;3.03;;;0.40;89.50;;;;;;5066301;28;20025;-74
2021/03/05 04:13:14;;;;;;;9.90;3.72;;;0.40;89.80;;;;;;5061609;28;20044;-73
2021/03/05 04:15:40;;;;;;;9.13;3.53;;;0.20;89.70;;;;;;5067322;28;20132;-72
2021/03/05 04:18:06;;;;;;;9.40;3.65;;;0.20;90.00;;;;;;5065967;28;20463;-72
2021/03/05 04:20:37;;;;;;;8.80;2.22;;;0.10;90.00;;;;;;5062796;28;20036;-73
2021/03/05 04:23:04;;;;;;;7.68;3.13;;;0.10;90.20;;;;;;5067051;28;20434;-71
2021/03/05 04:25:30;;;;;;;5.68;2.75;;;0.20;90.30;;;;;;5061050;28;20024;-72
2021/03/05 04:27:56;;;;;;;9.50;3.30;;;0.10;90.10;;;;;;5061623;28;20360;-72
2021/03/05 04:30:22;;;;;;;9.00;3.40;;;0.00;90.30;;;;;;5069119;28;20070;-72
2021/03/05 04:32:47;;;;;;;9.32;2.50;;;0.00;90.30;;;;;;5068355;28;20444;-72
2021/03/05 04:35:13;;;;;;;10.48;2.90;;;0.00;90.60;;;;;;5065792;28;20020;-72
2021/03/05 04:37:39;;;;;;;5.97;2.75;;;0.00;90.50;;;;;;5068692;28;20040;-74
2021/03/05 04:40:07;;;;;;;8.10;3.25;;;0.00;90.30;;;;;;5067052;28;20046;-71
2021/03/05 04:42:33;;;;;;;5.20;2.55;;;0.00;90.40;;;;;;5070087;28;20364;-73
2021/03/05 04:45:00;;;;;;;7.15;2.97;;;-0.10;90.70;;;;;;5071231;28;20027;-71
2021/03/05 04:47:26;;;;;;;9.00;3.75;;;-0.10;90.60;;;;;;5071843;28;20017;-72
2021/03/05 04:49:51;;;;;;;7.78;3.35;;;-0.20;90.70;;;;;;5066452;28;20020;-72
2021/03/05 04:52:17;;;;;;;15.13;4.65;;;-0.10;90.80;;;;;;5071815;28;20067;-72
2021/03/05 04:54:43;;;;;;;11.60;4.55;;;-0.10;90.70;;;;;;5071879;28;20074;-74
2021/03/05 04:57:09;;;;;;;11.40;3.67;;;-0.10;90.70;;;;;;5068155;28;20463;-73
2021/03/05 04:59:34;;;;;;;7.60;3.92;;;-0.10;90.80;;;;;;5068538;28;20110;-71
2021/03/05 05:02:00;;;;;;;9.52;4.10;;;-0.10;90.80;;;;;;5066831;28;20083;-75
2021/03/05 05:04:26;;;;;;;9.05;4.57;;;-0.10;90.90;;;;;;5072117;28;20051;-72
2021/03/05 05:06:52;;;;;;;12.52;4.85;;;-0.20;90.90;;;;;;5067359;28;20107;-71
2021/03/05 05:09:19;;;;;;;13.80;4.90;;;-0.20;91.00;;;;;;5065305;28;20071;-72
2021/03/05 05:11:45;;;;;;;10.27;4.78;;;-0.20;91.00;;;;;;5070947;28;20037;-72
2021/03/05 05:14:11;;;;;;;12.13;4.90;;;-0.30;91.30;;;;;;5072006;28;20060;-72
2021/03/05 05:16:37;;;;;;;7.32;3.90;;;-0.30;91.20;;;;;;5065922;28;20040;-72
2021/03/05 05:19:03;;;;;;;14.30;4.72;;;-0.30;91.30;;;;;;5070510;28;20055;-71
2021/03/05 05:21:29;;;;;;;9.85;4.32;;;-0.30;91.30;;;;;;5074777;28;20035;-72
2021/03/05 05:23:54;;;;;;;11.85;5.55;;;-0.30;91.50;;;;;;5069393;28;20406;-72
2021/03/05 05:26:20;;;;;;;12.82;4.00;;;-0.30;91.40;;;;;;5071855;28;21455;-73
2021/03/05 05:28:46;;;;;;;11.63;4.68;;;-0.30;91.50;;;;;;5071613;28;20017;-74
2021/03/05 05:31:11;;;;;;;10.38;3.97;;;-0.30;91.40;;;;;;5066591;28;20074;-72
2021/03/05 05:33:37;;;;;;;9.65;3.95;;;-0.30;91.60;;;;;;5068108;28;20022;-74
2021/03/05 05:36:03;;;;;;;13.05;4.63;;;-0.20;91.50;;;;;;5066873;28;20028;-71
2021/03/05 05:38:29;;;;;;;7.53;3.90;;;-0.20;91.30;;;;;;5068007;28;20499;-72
2021/03/05 05:40:59;;;;;;;9.13;4.47;;;-0.20;91.40;;;;;;5065284;28;20111;-72
2021/03/05 05:43:30;;;;;;;12.55;4.05;;;-0.10;91.30;;;;;;5070540;28;20044;-73
2021/03/05 05:46:03;;;;;;;9.63;4.18;;;-0.20;91.30;;;;;;5068822;28;20359;-72
2021/03/05 05:48:30;;;;;;;13.82;4.80;;;-0.10;91.30;;;;;;5064713;28;20028;-71
2021/03/05 05:50:57;;;;;;;13.20;4.35;;;-0.10;91.20;;;;;;5068335;28;20036;-71
2021/03/05 05:53:28;;;;;;;14.15;5.65;;;-0.10;91.30;;;;;;5068237;28;20044;-71
2021/03/05 05:55:54;;;;;;;16.70;5.35;;;-0.10;91.00;;;;;;5069103;28;20108;-74
2021/03/05 05:58:19;;;;;;;12.55;5.22;;;-0.10;90.90;;;;;;5067672;28;20100;-72
2021/03/05 06:00:45;;;;;;;12.77;5.40;;;-0.10;91.10;;;;;;5064686;28;20079;-72
2021/03/05 06:03:13;;;;;;;18.65;6.57;;;-0.10;91.10;;;;;;5062552;28;20037;-72
2021/03/05 06:05:38;;;;;;;11.27;4.38;;;-0.10;90.90;;;;;;5069502;28;20044;-74
2021/03/05 06:08:06;;;;;;;17.25;5.47;;;-0.10;91.10;;;;;;5072721;28;20020;-74
2021/03/05 06:10:31;;;;;;;11.38;4.95;;;-0.10;91.00;;;;;;5070392;28;20387;-74
2021/03/05 06:12:57;;;;;;;11.45;5.30;;;-0.10;90.90;;;;;;5069752;28;20033;-72
2021/03/05 06:15:27;;;;;;;18.20;5.78;;;-0.10;91.10;;;;;;5063511;28;20463;-74
2021/03/05 06:17:53;;;;;;;10.82;5.22;;;0.00;90.70;;;;;;5071657;28;20029;-71
2021/03/05 06:20:19;;;;;;;11.60;5.40;;;0.00;90.60;;;;;;5071180;28;20039;-71
2021/03/05 06:22:46;;;;;;;12.38;6.00;;;0.00;90.70;;;;;;5067292;28;20060;-72
2021/03/05 06:25:12;;;;;;;14.75;6.57;;;-0.10;90.70;;;;;;5061958;28;20029;-72
2021/03/05 06:27:39;;;;;;;12.30;5.28;;;-0.10;90.80;;;;;;5067648;28;20507;-72
2021/03/05 06:30:07;;;;;;;13.77;5.57;;;0.00;90.80;;;;;;5069397;28;20025;-72
2021/03/05 06:32:38;;;;;;;11.98;5.38;;;0.00;90.80;;;;;;5070580;28;20426;-72
2021/03/05 06:35:04;;;;;;;;;;;0.00;90.80;;;;;;5069903;28;20111;-72
2021/03/05 06:37:44;;;;;;;10.20;4.95;;;0.00;90.80;;;;;;5062554;28;20002;-72
2021/03/05 06:40:11;;;;;;;12.35;6.40;;;0.10;90.90;;;;;;5069567;28;20067;-73
2021/03/05 06:42:51;;;;;;;17.40;5.63;;;0.10;90.60;;;;;;5066921;28;20036;-72
2021/03/05 06:45:20;;;;;;;16.05;5.65;;;0.20;90.70;;;;;;5066364;28;20032;-72
2021/03/05 06:48:08;;;;;;;16.85;7.75;;;0.30;90.30;;;;;;5065974;28;20150;-73
2021/03/05 06:50:37;;;;;;;10.02;5.05;;;0.30;90.10;;;;;;5070617;28;20031;-73
2021/03/05 06:53:23;;;;;;;12.50;5.55;;;0.40;90.00;;;;;;5067562;28;20114;-73
2021/03/05 06:55:48;;;;;;;12.32;6.13;;;0.40;90.10;;;;;;5063725;28;20082;-71
2021/03/05 06:58:14;;;;;;;14.93;5.82;;;0.40;90.10;;;;;;5065327;28;20082;-72
2021/03/05 07:00:41;;;;;;;15.90;5.95;;;0.50;89.70;;;;;;5069060;28;20465;-72
2021/03/05 07:03:20;;;;;;;15.88;7.15;;;0.40;89.20;;;;;;5055739;28;20029;-72
2021/03/05 07:05:53;;;;;;;14.18;7.53;;;0.50;89.50;;;;;;5063244;28;20412;-73
2021/03/05 07:08:41;;;;;;;16.38;6.40;;;0.40;89.00;;;;;;5061841;28;20078;-73
2021/03/05 07:11:12;;;;;;;13.25;6.95;;;0.30;89.60;;;;;;5066328;28;20048;-72
2021/03/05 07:13:55;;;;;;;10.60;5.70;;;0.40;89.60;;;;;;5066635;28;20032;-72
2021/03/05 07:16:21;;;;;;;24.10;7.57;;;0.40;88.70;;;;;;5067149;28;20119;-72
2021/03/05 07:18:47;;;;;;;13.57;6.20;;;0.40;89.10;;;;;;5063371;28;20166;-72
2021/03/05 07:21:17;;;;;;;13.48;5.93;;;0.40;89.00;;;;;;5059943;28;20025;-72
2021/03/05 07:23:46;;;;;;;12.00;6.65;;;0.50;88.70;;;;;;5057887;28;20073;-72
2021/03/05 07:26:12;;;;;;;16.10;6.30;;;0.60;88.20;;;;;;5062956;28;20032;-72
2021/03/05 07:28:46;;;;;;;13.50;6.22;;;0.70;87.40;;;;;;5052994;28;20487;-73
2021/03/05 07:31:16;;;;;;;14.57;8.18;;;0.80;87.70;;;;;;5057633;28;20116;-72
2021/03/05 07:33:43;;;;;;;17.77;8.00;;;0.90;86.70;;;;;;5059079;28;20025;-70
2021/03/05 07:36:14;;;;;;;16.92;6.75;;;1.00;86.40;;;;;;5065301;28;20033;-68
2021/03/05 07:38:43;;;;;;;11.38;6.88;;;1.10;85.90;;;;;;5061108;28;20479;-70
2021/03/05 07:41:10;;;;;;;16.02;7.45;;;1.30;85.10;;;;;;5069072;28;20025;-70
2021/03/05 07:43:37;;;;;;;17.08;7.75;;;1.50;85.00;;;;;;5067711;28;20035;-71
2021/03/05 07:46:03;;;;;;;12.90;6.35;;;1.60;84.20;;;;;;5059890;28;20111;-72
2021/03/05 07:48:29;;;;;;;16.65;7.35;;;1.60;82.60;;;;;;5040948;28;20081;-69
2021/03/05 07:50:59;;;;;;;16.23;7.50;;;1.50;83.00;;;;;;5058900;28;20084;-69
2021/03/05 07:53:25;;;;;;;15.03;6.43;;;1.50;83.40;;;;;;5065201;28;20131;-70
2021/03/05 07:55:50;;;;;;;16.45;6.72;;;1.60;83.10;;;;;;5058785;28;20092;-72
2021/03/05 07:58:44;;;;;;;14.27;6.93;;;1.50;83.60;;;;;;5061908;28;20027;-71
2021/03/05 08:01:10;;;;;;;14.70;7.68;;;1.60;83.60;;;;;;5060661;28;20024;-72
2021/03/05 08:03:52;;;;;;;17.80;8.15;;;1.60;83.00;;;;;;5063246;28;20057;-72
2021/03/05 08:06:30;;;;;;;17.13;8.15;;;1.70;83.60;;;;;;5063251;28;20063;-69
2021/03/05 08:09:09;;;;;;;18.23;7.28;;;1.70;83.70;;;;;;5059220;28;20050;-70
2021/03/05 08:11:38;;;;;;;13.48;6.70;;;1.70;83.60;;;;;;5063037;28;20041;-70
2021/03/05 08:14:19;;;;;;;15.98;7.88;;;1.70;82.80;;;;;;5061968;28;20593;-73
2021/03/05 08:16:47;;;;;;;19.33;8.38;;;1.70;83.30;;;;;;5065710;28;20568;-72
2021/03/05 08:19:14;;;;;;;13.90;7.45;;;1.80;82.90;;;;;;5062720;28;20119;-72
2021/03/05 08:21:53;;;;;;;14.02;7.50;;;1.90;82.50;;;;;;5060947;28;20040;-73
2021/03/05 08:24:19;;;;;;;14.57;7.32;;;2.00;82.20;;;;;;5068397;28;20040;-72
2021/03/05 08:26:58;;;;;;;16.52;8.27;;;2.10;81.20;;;;;;5067406;28;20033;-70
2021/03/05 08:29:57;;;;;;;13.88;8.35;;;2.10;81.30;;;;;;5063131;28;20108;-69
2021/03/05 08:35:03;;;;;;;15.20;8.65;;;2.00;80.60;;;;;;5057084;28;20037;-70
2021/03/05 08:37:43;;;;;;;11.90;6.55;;;2.00;80.80;;;;;;5065572;28;20081;-71
2021/03/05 08:40:17;;;;;;;13.93;7.27;;;2.00;80.40;;;;;;5071336;28;20024;-70
2021/03/05 08:42:46;;;;;;;17.90;7.80;;;2.00;80.50;;;;;;5066270;28;20950;-69
2021/03/05 08:45:22;;;;;;;16.65;9.65;;;2.10;80.30;;;;;;5055603;28;20029;-74
2021/03/05 08:47:54;;;;;;;16.67;7.90;;;2.10;78.90;;;;;;5062609;28;20036;-71
2021/03/05 08:50:31;;;;;;;14.85;7.03;;;2.20;79.10;;;;;;5064496;28;20032;-72
2021/03/05 08:53:12;;;;;;;13.95;6.10;;;2.30;78.60;;;;;;5061925;28;20029;-71
2021/03/05 08:55:42;;;;;;;10.70;5.65;;;2.40;76.80;;;;;;5063346;28;20029;-68
2021/03/05 08:58:08;;;;;;;13.90;6.88;;;2.40;76.40;;;;;;5064670;28;20020;-71
2021/03/05 09:00:36;;;;;;;18.08;7.18;;;2.50;75.90;;;;;;5058099;28;20029;-71
2021/03/05 09:03:16;;;;;;;10.93;5.10;;;2.50;76.20;;;;;;5061387;28;20429;-70
2021/03/05 09:05:47;;;;;;;12.18;5.53;;;2.50;74.80;;;;;;5062914;28;20057;-73
2021/03/05 09:08:15;;;;;;;8.40;5.00;;;2.60;75.50;;;;;;5058410;28;20402;-72
2021/03/05 09:10:46;;;;;;;8.60;4.05;;;2.70;75.30;;;;;;5059964;28;20047;-74
2021/03/05 09:13:17;;;;;;;10.52;4.55;;;2.70;73.20;;;;;;5061137;28;20100;-73
2021/03/05 09:15:48;;;;;;;9.48;4.72;;;2.70;72.80;;;;;;5057133;28;20575;-73
2021/03/05 09:18:16;;;;;;;11.73;4.85;;;2.80;72.40;;;;;;5059437;28;20422;-70
2021/03/05 09:20:48;;;;;;;11.10;4.90;;;2.80;73.40;;;;;;5058922;28;20072;-69
2021/03/05 09:23:40;;;;;;;9.15;5.00;;;3.00;72.80;;;;;;5059955;28;20490;-70
2021/03/05 09:26:15;;;;;;;13.55;5.80;;;3.20;72.20;;;;;;5061108;28;20175;-73
2021/03/05 09:29:03;;;;;;;7.72;2.95;;;3.40;72.60;;;;;;5061185;28;20039;-69
2021/03/05 09:31:30;;;;;;;5.85;3.10;;;3.50;67.00;;;;;;5063394;28;20047;-70
2021/03/05 09:34:00;;;;;;;7.18;3.55;;;3.50;66.70;;;;;;5060241;28;20839;-72
2021/03/05 09:36:26;;;;;;;8.90;2.60;;;3.50;66.20;;;;;;5055534;28;20037;-71
2021/03/05 09:39:03;;;;;;;5.03;2.20;;;3.60;66.50;;;;;;5059179;28;20043;-72
2021/03/05 09:41:30;;;;;;;7.03;2.28;;;3.70;65.20;;;;;;5059352;28;20033;-72
2021/03/05 09:44:08;;;;;;;8.02;3.65;;;3.60;64.00;;;;;;5064564;28;20065;-68
2021/03/05 09:46:35;;;;;;;9.18;2.75;;;3.60;64.20;;;;;;5062803;28;20058;-68
2021/03/05 09:49:39;;;;;;;5.63;2.20;;;3.70;65.30;;;;;;5060622;28;20605;-70
2021/03/05 09:52:24;;;;;;;7.10;1.92;;;3.70;62.30;;;;;;5017978;28;20559;-69
2021/03/05 09:54:53;;;;;;;10.10;3.10;;;3.80;62.50;;;;;;5020905;28;20025;-68
2021/03/05 09:57:26;;;;;;;5.03;1.60;;;3.80;62.40;;;;;;5022655;28;20049;-72
2021/03/05 09:59:52;;;;;;;4.72;1.38;;;3.70;58.80;;;;;;5020008;28;20037;-72
2021/03/05 10:02:19;;;;;;;4.05;1.33;;;3.60;60.00;;;;;;5019611;28;20040;-68
2021/03/05 10:04:46;;;;;;;3.67;2.20;;;3.60;59.40;;;;;;5017259;28;20088;-72
2021/03/05 10:07:12;;;;;;;4.28;1.77;;;3.60;59.10;;;;;;5023393;28;20030;-74
2021/03/05 10:09:38;;;;;;;4.70;1.67;;;3.60;57.30;;;;;;5024830;28;20152;-72
2021/03/05 10:12:05;;;;;;;2.65;1.80;;;3.60;57.20;;;;;;5021851;28;20041;-73
2021/03/05 10:14:34;;;;;;;5.03;2.30;;;3.50;60.00;;;;;;5024106;28;20026;-72
2021/03/05 10:17:09;;;;;;;6.93;2.00;;;3.50;61.90;;;;;;5022542;28;20033;-70
2021/03/05 10:19:37;;;;;;;5.75;2.40;;;3.40;62.80;;;;;;5022279;28;20030;-70
2021/03/05 10:22:03;;;;;;;4.10;1.90;;;3.30;61.40;;;;;;5026757;28;20029;-72
2021/03/05 10:24:29;;;;;;;4.82;1.90;;;3.30;62.00;;;;;;5057954;28;20029;-71
2021/03/05 10:27:23;;;;;;;4.80;1.80;;;3.40;62.30;;;;;;5058333;28;20027;-72
2021/03/05 10:29:57;;;;;;;4.20;1.42;;;3.50;59.40;;;;;;5051275;28;20041;-72
2021/03/05 10:32:28;;;;;;;5.03;1.65;;;3.60;59.80;;;;;;5062333;28;20048;-74
2021/03/05 10:34:55;;;;;;;3.92;1.77;;;3.60;60.30;;;;;;5061512;28;20031;-73
2021/03/05 10:37:22;;;;;;;2.50;1.17;;;3.80;60.40;;;;;;5061353;28;20133;-73
2021/03/05 10:39:49;;;;;;;3.88;1.40;;;3.80;59.10;;;;;;5061235;28;20065;-71
2021/03/05 10:42:16;;;;;;;2.47;1.02;;;3.90;58.40;;;;;;5053943;28;20496;-72
2021/03/05 10:44:44;;;;;;;2.95;0.98;;;3.80;55.00;;;;;;5057681;28;20025;-72
2021/03/05 10:47:12;;;;;;;2.05;0.73;;;3.80;54.00;;;;;;5058512;28;20079;-70
2021/03/05 10:49:40;;;;;;;1.88;0.80;;;3.50;53.60;;;;;;5059833;28;20115;-72
2021/03/05 10:52:07;;;;;;;2.90;1.60;;;3.50;52.90;;;;;;5058683;28;20040;-73
2021/03/05 10:54:33;;;;;;;2.25;0.75;;;3.60;53.50;;;;;;5062272;28;20052;-70
2021/03/05 10:56:59;;;;;;;2.45;0.47;;;3.80;49.60;;;;;;5056721;28;20032;-73
2021/03/05 10:59:25;;;;;;;1.23;0.55;;;3.90;48.70;;;;;;5062132;28;20028;-71
2021/03/05 11:01:53;;;;;;;1.08;0.40;;;4.10;49.40;;;;;;5063535;28;20047;-71
2021/03/05 11:04:26;;;;;;;3.45;1.23;;;4.20;49.10;;;;;;5055552;28;20083;-71
2021/03/05 11:06:53;;;;;;;1.10;0.70;;;4.30;48.40;;;;;;5060784;28;20060;-70
2021/03/05 11:09:20;;;;;;;2.08;0.90;;;4.40;49.20;;;;;;5061952;28;20029;-72
2021/03/05 11:11:46;;;;;;;2.33;1.00;;;4.20;48.80;;;;;;5054402;28;20040;-70
2021/03/05 11:14:13;;;;;;;3.85;1.20;;;4.10;47.50;;;;;;5062057;28;20037;-71
2021/03/05 11:16:39;;;;;;;1.67;0.85;;;3.90;48.40;;;;;;5058598;28;20032;-69
2021/03/05 11:19:06;;;;;;;3.78;0.98;;;3.80;49.50;;;;;;5062468;28;20028;-72
2021/03/05 11:21:32;;;;;;;2.10;0.80;;;3.60;49.00;;;;;;5061099;28;20051;-69
2021/03/05 11:23:59;;;;;;;1.45;0.88;;;3.60;49.00;;;;;;5059590;28;20034;-72
2021/03/05 11:26:25;;;;;;;4.32;1.10;;;3.70;48.60;;;;;;5059399;28;20036;-69
2021/03/05 11:28:52;;;;;;;2.05;1.10;;;3.90;50.00;;;;;;5061044;28;20039;-70
2021/03/05 11:31:19;;;;;;;3.33;1.10;;;4.00;49.30;;;;;;5057317;28;20256;-72
2021/03/05 11:33:44;;;;;;;3.35;1.05;;;4.20;47.30;;;;;;5053825;28;20055;-72
2021/03/05 11:36:15;;;;;;;2.47;0.82;;;4.30;44.80;;;;;;5055538;28;20832;-71
2021/03/05 11:38:41;;;;;;;;;;;4.30;42.40;;;;;;5056734;28;20013;-71
2021/03/05 11:41:07;;;;;;;1.20;0.40;;;4.30;43.50;;;;;;5064573;28;19916;-69
2021/03/05 11:43:34;;;;;;;1.48;0.60;;;4.30;40.20;;;;;;5058523;28;20029;-71
2021/03/05 11:46:00;;;;;;;1.90;0.88;;;4.50;45.00;;;;;;5057505;28;20480;-67
2021/03/05 11:48:26;;;;;;;4.57;1.23;;;4.70;45.00;;;;;;5057556;28;20021;-68
2021/03/05 11:50:51;;;;;;;6.43;1.15;;;4.90;45.50;;;;;;5058763;28;20491;-67
2021/03/05 11:53:17;;;;;;;2.78;1.00;;;4.80;45.50;;;;;;5056263;28;20083;-68
2021/03/05 11:55:43;;;;;;;1.90;1.05;;;4.60;46.10;;;;;;5053813;28;20112;-69
2021/03/05 11:58:09;;;;;;;2.80;0.82;;;4.60;46.70;;;;;;5057512;28;20037;-69
2021/03/05 12:00:34;;;;;;;1.92;1.00;;;4.50;47.10;;;;;;5057021;28;20032;-70
2021/03/05 12:03:00;;;;;;;4.80;1.45;;;4.30;45.40;;;;;;5057833;28;20029;-72
2021/03/05 12:05:26;;;;;;;4.32;1.10;;;4.20;46.40;;;;;;5060581;28;20041;-69
2021/03/05 12:07:52;;;;;;;3.95;1.52;;;4.20;46.40;;;;;;5060405;28;21091;-68
2021/03/05 12:10:18;;;;;;;4.50;1.40;;;4.30;48.00;;;;;;5057799;28;20021;-70
2021/03/05 12:12:44;;;;;;;3.15;1.45;;;4.30;47.20;;;;;;5057197;28;20041;-70
2021/03/05 12:15:11;;;;;;;2.03;1.20;;;4.20;48.50;;;;;;5059786;28;20029;-70
2021/03/05 12:17:36;;;;;;;5.68;2.58;;;4.00;46.50;;;;;;5042174;28;21018;-68
2021/03/05 12:20:04;;;;;;;2.25;1.15;;;3.90;47.00;;;;;;5059255;28;20029;-72
2021/03/05 12:22:29;;;;;;;6.15;1.75;;;3.80;47.20;;;;;;5060311;28;20021;-71
2021/03/05 12:24:55;;;;;;;8.75;3.22;;;3.80;46.70;;;;;;5060833;28;20468;-71
2021/03/05 12:27:22;;;;;;;2.38;0.98;;;4.00;46.50;;;;;;5053115;28;20032;-70
2021/03/05 12:29:47;;;;;;;5.38;2.72;;;4.20;46.00;;;;;;5059773;28;20028;-72
2021/03/05 12:32:13;;;;;;;4.53;1.92;;;4.40;44.90;;;;;;5059731;28;20045;-72
2021/03/05 12:34:39;;;;;;;7.50;2.90;;;4.60;45.70;;;;;;5060191;28;20068;-72
2021/03/05 12:37:04;;;;;;;2.08;0.90;;;4.70;47.00;;;;;;5059012;28;20038;-72
2021/03/05 12:39:31;;;;;;;2.13;1.00;;;4.70;45.60;;;;;;5060672;28;20040;-71
2021/03/05 12:41:56;;;;;;;2.97;1.45;;;4.60;47.30;;;;;;5056969;28;20490;-74
2021/03/05 12:44:22;;;;;;;3.22;1.42;;;4.40;45.50;;;;;;5056627;28;20037;-74
2021/03/05 12:46:48;;;;;;;3.90;1.98;;;4.30;46.20;;;;;;5055784;28;20564;-72
2021/03/05 12:49:14;;;;;;;5.90;1.85;;;4.20;47.80;;;;;;5056928;28;20036;-72
2021/03/05 12:51:40;;;;;;;4.43;1.90;;;4.30;47.40;;;;;;5055005;28;20032;-72
2021/03/05 12:54:05;;;;;;;2.90;1.50;;;4.30;47.50;;;;;;5058402;28;20020;-68
2021/03/05 12:56:32;;;;;;;5.28;2.47;;;4.40;48.00;;;;;;5057984;28;20025;-71
2021/03/05 12:58:58;;;;;;;3.20;1.52;;;4.50;44.30;;;;;;5055419;28;20107;-72
2021/03/05 13:01:24;;;;;;;3.83;1.60;;;4.70;44.10;;;;;;5056382;28;20556;-75